Terminal Aerodrome Forecast
Issued by NWS Twin Cities, MN

Home | Current Version | Previous Version | Graphics & Text | Print | Product List | Glossary On
Versions: 1 2 3 4 5 6 7 8 9 10 11 12 13 14
000
FTUS43 KMPX 250204 AAA
TAFEAU
TAF AMD
KEAU 250204Z 2502/2524 17006KT P6SM FEW035
     FM250300 20007KT P6SM VCTS SCT040CB
     FM250500 32006KT P6SM SKC
     FM250900 VRB04KT 3SM BR SKC
     FM251200 VRB05KT P6SM FEW250=

USA.gov is the U.S. government's official web portal to all federal, state and local government web resources and services.